Time;durP1;ratioP1;P1;durP2;ratioP2;P2;SDS_P1;SDS_P2;PMS_P1;PMS_P2;Temp;Humidity;BMP_temperature;BMP_pressure;BME280_temperature;BME280_humidity;BME280_pressure;Samples;Min_cycle;Max_cycle;Signal;HPM_P1;HPM_P2
2022/06/04 00:00:22;;;;;;;;;;;21.60;54.80;;;;;;496436;240;1228;-41
2022/06/04 00:02:23;;;;;;;;;;;21.60;54.80;;;;;;496126;240;1173;-41
2022/06/04 00:04:24;;;;;;;;;;;21.60;54.80;;;;;;496100;240;1193;-41
2022/06/04 00:06:25;;;;;;;;;;;21.60;54.70;;;;;;496540;240;1120;-41
2022/06/04 00:08:28;;;;;;;;;;;21.60;54.80;;;;;;496554;240;1248;-41
2022/06/04 00:17:27;;;;;;;;;;;21.60;54.80;;;;;;496135;240;1203;-41
2022/06/04 00:19:28;;;;;;;;;;;21.60;54.80;;;;;;496438;240;1132;-41
2022/06/04 00:21:30;;;;;;;;;;;21.50;54.80;;;;;;496013;240;1188;-41
2022/06/04 00:23:31;;;;;;;;;;;21.60;54.80;;;;;;496605;240;1042;-41
2022/06/04 00:25:33;;;;;;;;;;;21.60;54.70;;;;;;496185;240;1044;-41
2022/06/04 00:27:34;;;;;;;;;;;21.60;54.80;;;;;;496108;240;1333;-41
2022/06/04 00:29:35;;;;;;;;;;;21.50;54.80;;;;;;496579;240;1179;-41
2022/06/04 00:31:37;;;;;;;;;;;21.50;54.80;;;;;;496606;240;1128;-41
2022/06/04 00:33:39;;;;;;;;;;;21.60;54.80;;;;;;496623;240;2181;-41
2022/06/04 00:35:40;;;;;;;;;;;21.60;54.80;;;;;;496248;240;1413;-41
2022/06/04 00:37:41;;;;;;;;;;;21.60;54.80;;;;;;496255;240;1036;-41
2022/06/04 00:39:42;;;;;;;;;;;21.60;54.80;;;;;;496639;240;1145;-41
2022/06/04 00:41:43;;;;;;;;;;;21.60;54.70;;;;;;496630;240;1127;-41
2022/06/04 00:43:45;;;;;;;;;;;21.60;54.70;;;;;;496156;240;1005;-41
2022/06/04 00:45:46;;;;;;;;;;;21.60;54.70;;;;;;496578;240;1134;-41
2022/06/04 00:47:47;;;;;;;;;;;21.60;54.70;;;;;;496457;240;1023;-41
2022/06/04 00:49:49;;;;;;;;;;;21.60;54.80;;;;;;496554;240;1123;-41
2022/06/04 00:51:50;;;;;;;;;;;21.60;54.70;;;;;;496033;240;2197;-41
2022/06/04 00:53:51;;;;;;;;;;;21.60;54.60;;;;;;496341;240;1090;-41
2022/06/04 00:55:53;;;;;;;;;;;21.60;54.70;;;;;;496145;240;1225;-41
2022/06/04 00:57:54;;;;;;;;;;;21.50;54.80;;;;;;496411;240;1143;-41
2022/06/04 00:59:55;;;;;;;;;;;21.60;54.80;;;;;;496605;240;1027;-41
2022/06/04 01:01:57;;;;;;;;;;;21.60;54.70;;;;;;496066;240;1245;-41
2022/06/04 01:03:58;;;;;;;;;;;21.60;54.80;;;;;;496574;240;1261;-41
2022/06/04 01:05:59;;;;;;;;;;;21.60;54.80;;;;;;496234;240;1353;-41
2022/06/04 01:08:01;;;;;;;;;;;21.60;54.80;;;;;;496133;240;1131;-41
2022/06/04 01:10:02;;;;;;;;;;;21.60;54.70;;;;;;496154;240;1300;-41
2022/06/04 01:12:10;;;;;;;;;;;21.60;54.80;;;;;;496569;240;2209;-41
2022/06/04 01:14:11;;;;;;;;;;;21.50;54.80;;;;;;496595;240;1245;-41
2022/06/04 01:16:12;;;;;;;;;;;21.60;54.80;;;;;;496073;240;1245;-41
2022/06/04 01:18:14;;;;;;;;;;;21.60;54.80;;;;;;496142;240;1148;-41
2022/06/04 01:20:17;;;;;;;;;;;21.60;54.70;;;;;;496408;240;1185;-41
2022/06/04 01:22:16;;;;;;;;;;;21.60;54.60;;;;;;495895;240;1370;-41
2022/06/04 01:24:18;;;;;;;;;;;21.60;54.70;;;;;;496154;240;1176;-41
2022/06/04 01:26:19;;;;;;;;;;;21.60;54.70;;;;;;496083;240;1231;-41
2022/06/04 01:28:20;;;;;;;;;;;21.60;54.80;;;;;;496107;240;1062;-41
2022/06/04 01:30:22;;;;;;;;;;;21.50;54.90;;;;;;496119;240;1405;-41
2022/06/04 01:32:23;;;;;;;;;;;21.50;54.80;;;;;;496553;240;2193;-41
2022/06/04 01:34:24;;;;;;;;;;;21.60;54.90;;;;;;496600;240;1322;-41
2022/06/04 01:36:26;;;;;;;;;;;21.60;54.70;;;;;;496217;240;1185;-41
2022/06/04 01:38:27;;;;;;;;;;;21.60;54.70;;;;;;496586;240;1030;-41
2022/06/04 01:42:48;;;;;;;;;;;21.60;54.70;;;;;;496125;240;1198;-41
2022/06/04 01:44:49;;;;;;;;;;;21.60;54.80;;;;;;496640;240;1175;-41
2022/06/04 01:46:51;;;;;;;;;;;21.60;54.90;;;;;;496280;240;1270;-41
2022/06/04 01:48:53;;;;;;;;;;;21.50;54.90;;;;;;496163;240;1264;-41
2022/06/04 01:50:54;;;;;;;;;;;21.50;54.90;;;;;;496386;240;1351;-41
2022/06/04 01:52:55;;;;;;;;;;;21.60;54.90;;;;;;496420;240;2122;-41
2022/06/04 01:54:57;;;;;;;;;;;21.60;54.80;;;;;;496639;240;1319;-41
2022/06/04 01:56:58;;;;;;;;;;;21.60;54.80;;;;;;496530;240;1269;-41
2022/06/04 01:59:00;;;;;;;;;;;21.50;54.80;;;;;;496499;240;1287;-41
2022/06/04 02:01:01;;;;;;;;;;;21.60;54.80;;;;;;496148;240;1143;-41
2022/06/04 02:03:02;;;;;;;;;;;21.60;54.80;;;;;;496481;240;1187;-41
2022/06/04 02:05:03;;;;;;;;;;;21.50;54.90;;;;;;496514;240;1138;-41
2022/06/04 02:09:24;;;;;;;;;;;21.50;54.80;;;;;;496142;240;1196;-41
2022/06/04 02:11:25;;;;;;;;;;;21.50;54.90;;;;;;496061;240;1255;-41
2022/06/04 02:13:27;;;;;;;;;;;21.60;54.80;;;;;;496139;240;2171;-41
2022/06/04 02:15:28;;;;;;;;;;;21.60;54.80;;;;;;496228;240;1173;-41
2022/06/04 02:17:29;;;;;;;;;;;21.50;54.80;;;;;;496084;240;1204;-41
2022/06/04 02:19:31;;;;;;;;;;;21.50;54.90;;;;;;496153;240;1248;-41
2022/06/04 02:21:33;;;;;;;;;;;21.50;55.00;;;;;;496076;240;1226;-41
2022/06/04 02:23:34;;;;;;;;;;;21.50;54.90;;;;;;496079;240;1266;-41
2022/06/04 02:25:35;;;;;;;;;;;21.50;54.80;;;;;;496560;240;1234;-41
2022/06/04 02:27:36;;;;;;;;;;;21.50;54.80;;;;;;496493;240;1246;-41
2022/06/04 02:29:38;;;;;;;;;;;21.60;54.80;;;;;;496113;240;1345;-41
2022/06/04 02:31:39;;;;;;;;;;;21.60;54.80;;;;;;496034;240;1191;-41
2022/06/04 02:33:40;;;;;;;;;;;21.50;54.80;;;;;;496122;240;2185;-41
2022/06/04 02:35:42;;;;;;;;;;;21.50;54.80;;;;;;496564;240;1335;-41
2022/06/04 02:37:43;;;;;;;;;;;21.50;54.90;;;;;;496385;240;1334;-41
2022/06/04 02:39:44;;;;;;;;;;;21.50;55.00;;;;;;496169;240;1165;-41
2022/06/04 02:41:46;;;;;;;;;;;21.50;54.90;;;;;;496439;240;1176;-41
2022/06/04 02:43:47;;;;;;;;;;;21.50;55.00;;;;;;496526;240;1073;-41
2022/06/04 02:45:48;;;;;;;;;;;21.50;54.80;;;;;;496576;240;1023;-41
2022/06/04 02:47:50;;;;;;;;;;;21.50;55.00;;;;;;496603;240;1290;-41
2022/06/04 02:49:51;;;;;;;;;;;21.50;54.90;;;;;;496670;240;1680;-41
2022/06/04 02:51:52;;;;;;;;;;;21.50;54.90;;;;;;496307;240;1157;-41
2022/06/04 02:53:54;;;;;;;;;;;21.50;54.90;;;;;;496638;240;2118;-41
2022/06/04 02:55:55;;;;;;;;;;;21.50;54.90;;;;;;496496;240;1319;-41
2022/06/04 02:57:56;;;;;;;;;;;21.50;54.90;;;;;;496641;240;1174;-41
2022/06/04 02:59:58;;;;;;;;;;;21.50;54.80;;;;;;496668;240;1110;-41
2022/06/04 03:01:59;;;;;;;;;;;21.50;54.90;;;;;;496096;240;1154;-41
2022/06/04 03:04:01;;;;;;;;;;;21.50;54.90;;;;;;496617;240;1333;-41
2022/06/04 03:06:03;;;;;;;;;;;21.40;55.10;;;;;;496566;240;1226;-41
2022/06/04 03:08:04;;;;;;;;;;;21.50;55.10;;;;;;496638;240;1261;-41
2022/06/04 03:10:05;;;;;;;;;;;21.50;54.90;;;;;;496672;240;1225;-41
2022/06/04 03:12:07;;;;;;;;;;;21.50;54.80;;;;;;496590;240;1173;-41
2022/06/04 03:14:08;;;;;;;;;;;21.50;54.80;;;;;;496655;240;2106;-41
2022/06/04 03:16:10;;;;;;;;;;;21.50;54.80;;;;;;496143;240;1306;-41
2022/06/04 03:18:11;;;;;;;;;;;21.50;54.80;;;;;;496489;240;2440;-41
2022/06/04 03:20:12;;;;;;;;;;;21.60;54.70;;;;;;496105;240;1330;-41
2022/06/04 03:22:13;;;;;;;;;;;21.60;54.70;;;;;;496281;240;1201;-41
2022/06/04 03:24:14;;;;;;;;;;;21.60;54.60;;;;;;496556;240;1329;-41
2022/06/04 03:26:16;;;;;;;;;;;21.60;54.70;;;;;;496621;240;1228;-41
2022/06/04 03:28:17;;;;;;;;;;;21.60;54.80;;;;;;496497;240;1238;-41
2022/06/04 03:30:18;;;;;;;;;;;21.60;54.80;;;;;;496611;240;1155;-41
2022/06/04 03:32:20;;;;;;;;;;;21.60;54.70;;;;;;496645;240;1179;-41
2022/06/04 03:34:21;;;;;;;;;;;21.50;54.70;;;;;;496170;240;2185;-41
2022/06/04 03:36:25;;;;;;;;;;;21.60;54.70;;;;;;496286;240;1289;-41
2022/06/04 03:38:24;;;;;;;;;;;21.60;54.70;;;;;;496382;240;1520;-41
2022/06/04 03:40:25;;;;;;;;;;;21.60;54.80;;;;;;496209;240;1242;-41
2022/06/04 03:42:26;;;;;;;;;;;21.60;54.70;;;;;;496339;240;1091;-41
2022/06/04 03:44:28;;;;;;;;;;;21.60;54.70;;;;;;496445;240;1074;-41
2022/06/04 03:46:29;;;;;;;;;;;21.60;54.60;;;;;;496555;240;1196;-41
2022/06/04 03:48:30;;;;;;;;;;;21.60;54.60;;;;;;496620;240;1050;-41
2022/06/04 03:50:32;;;;;;;;;;;21.60;54.60;;;;;;496612;240;1123;-41
2022/06/04 03:52:33;;;;;;;;;;;21.60;54.60;;;;;;496383;240;1252;-41
2022/06/04 03:54:53;;;;;;;;;;;21.60;54.50;;;;;;496548;240;2185;-41
2022/06/04 03:57:37;;;;;;;;;;;21.60;54.60;;;;;;496424;240;1170;-41
2022/06/04 03:58:56;;;;;;;;;;;21.60;54.60;;;;;;494809;240;1164;-41
2022/06/04 04:00:57;;;;;;;;;;;21.60;54.60;;;;;;496139;240;1569;-41
2022/06/04 04:02:58;;;;;;;;;;;21.60;54.60;;;;;;496083;240;1198;-41
2022/06/04 04:05:00;;;;;;;;;;;21.60;54.60;;;;;;496091;240;1255;-41
2022/06/04 04:07:02;;;;;;;;;;;21.60;54.60;;;;;;496084;240;1204;-41
2022/06/04 04:09:04;;;;;;;;;;;21.60;54.60;;;;;;496655;240;1063;-41
2022/06/04 04:11:05;;;;;;;;;;;21.60;54.70;;;;;;496065;240;1696;-41
2022/06/04 04:13:06;;;;;;;;;;;21.60;54.70;;;;;;496609;240;2175;-41
2022/06/04 04:15:07;;;;;;;;;;;21.60;54.60;;;;;;496658;240;967;-41
2022/06/04 04:17:09;;;;;;;;;;;21.60;54.70;;;;;;496090;240;1265;-41
2022/06/04 04:19:10;;;;;;;;;;;21.60;54.60;;;;;;496568;240;1124;-41
2022/06/04 04:21:12;;;;;;;;;;;21.60;54.60;;;;;;496302;240;1536;-41
2022/06/04 04:23:13;;;;;;;;;;;21.60;54.60;;;;;;496110;240;1040;-41
2022/06/04 04:25:14;;;;;;;;;;;21.60;54.60;;;;;;496134;240;1194;-41
2022/06/04 04:27:16;;;;;;;;;;;21.60;54.70;;;;;;496314;240;1226;-41
2022/06/04 04:29:17;;;;;;;;;;;21.60;54.70;;;;;;496605;240;1193;-41
2022/06/04 04:31:18;;;;;;;;;;;21.60;54.70;;;;;;496509;240;1321;-41
2022/06/04 04:33:20;;;;;;;;;;;21.60;54.70;;;;;;496610;240;2115;-41
2022/06/04 04:35:21;;;;;;;;;;;21.60;54.60;;;;;;496131;240;1369;-41
2022/06/04 04:37:22;;;;;;;;;;;21.60;54.70;;;;;;496129;240;1198;-41
2022/06/04 04:39:24;;;;;;;;;;;21.60;54.70;;;;;;496435;240;1250;-41
2022/06/04 04:41:25;;;;;;;;;;;21.60;54.60;;;;;;496496;240;1201;-41
2022/06/04 04:43:26;;;;;;;;;;;21.60;54.70;;;;;;496409;240;1176;-41
2022/06/04 04:45:28;;;;;;;;;;;21.60;54.70;;;;;;496596;240;1151;-41
2022/06/04 04:47:29;;;;;;;;;;;21.60;54.70;;;;;;496150;240;1193;-41
2022/06/04 04:49:30;;;;;;;;;;;21.60;54.60;;;;;;496635;240;1205;-41
2022/06/04 04:51:34;;;;;;;;;;;21.60;54.60;;;;;;496614;240;1254;-41
2022/06/04 04:53:33;;;;;;;;;;;21.60;54.60;;;;;;496114;240;2143;-41
2022/06/04 04:55:34;;;;;;;;;;;21.60;54.60;;;;;;496592;240;1310;-41
2022/06/04 04:57:36;;;;;;;;;;;21.60;54.60;;;;;;496590;240;1267;-41
2022/06/04 04:59:37;;;;;;;;;;;21.60;54.60;;;;;;496489;240;1162;-41
2022/06/04 05:01:38;;;;;;;;;;;21.60;54.60;;;;;;496014;240;1200;-41
2022/06/04 05:03:40;;;;;;;;;;;21.60;54.50;;;;;;496410;240;1286;-41
2022/06/04 05:05:41;;;;;;;;;;;21.60;54.60;;;;;;496548;240;1214;-41
2022/06/04 05:07:42;;;;;;;;;;;21.60;54.60;;;;;;496265;240;1355;-41
2022/06/04 05:09:44;;;;;;;;;;;21.60;54.60;;;;;;496477;240;1455;-41
2022/06/04 05:11:45;;;;;;;;;;;21.60;54.60;;;;;;496194;240;1264;-41
2022/06/04 05:13:49;;;;;;;;;;;21.60;54.70;;;;;;496263;240;2190;-41
2022/06/04 05:15:48;;;;;;;;;;;21.60;54.60;;;;;;496259;240;2263;-41
2022/06/04 05:17:50;;;;;;;;;;;21.60;54.60;;;;;;496545;240;1228;-41
2022/06/04 05:19:51;;;;;;;;;;;21.60;54.50;;;;;;496326;240;1158;-41
2022/06/04 05:21:52;;;;;;;;;;;21.60;54.60;;;;;;496029;240;1247;-41
2022/06/04 05:23:54;;;;;;;;;;;21.60;54.50;;;;;;496124;240;1541;-41
2022/06/04 05:25:57;;;;;;;;;;;21.60;54.60;;;;;;496600;240;1629;-41
2022/06/04 05:27:56;;;;;;;;;;;21.60;54.60;;;;;;496087;240;1539;-41
2022/06/04 05:29:58;;;;;;;;;;;21.70;54.50;;;;;;496545;240;1246;-41
2022/06/04 05:31:59;;;;;;;;;;;21.70;54.40;;;;;;496217;240;1330;-41
2022/06/04 05:34:01;;;;;;;;;;;21.70;54.40;;;;;;496616;240;2181;-41
2022/06/04 05:36:02;;;;;;;;;;;21.70;54.40;;;;;;496207;240;1546;-41
2022/06/04 05:38:03;;;;;;;;;;;21.70;54.40;;;;;;496062;240;1190;-41
2022/06/04 05:40:05;;;;;;;;;;;21.60;54.50;;;;;;496266;240;1575;-41
2022/06/04 05:42:06;;;;;;;;;;;21.60;54.50;;;;;;496028;240;1277;-41
2022/06/04 05:44:07;;;;;;;;;;;21.70;54.50;;;;;;496091;240;1152;-41
2022/06/04 05:46:09;;;;;;;;;;;21.70;54.50;;;;;;496363;240;1239;-41
2022/06/04 05:48:10;;;;;;;;;;;21.60;54.60;;;;;;496134;240;1432;-41
2022/06/04 05:50:11;;;;;;;;;;;21.60;54.50;;;;;;496154;240;1306;-41
2022/06/04 05:52:13;;;;;;;;;;;21.70;54.50;;;;;;496255;240;1273;-41
2022/06/04 05:54:14;;;;;;;;;;;21.60;54.60;;;;;;496142;240;2190;-41
2022/06/04 05:56:16;;;;;;;;;;;21.60;54.60;;;;;;496530;240;1271;-41
2022/06/04 05:58:17;;;;;;;;;;;21.60;54.50;;;;;;496503;240;1215;-41
2022/06/04 06:00:18;;;;;;;;;;;21.60;54.50;;;;;;496060;240;1379;-41
2022/06/04 06:02:20;;;;;;;;;;;21.70;54.60;;;;;;496289;240;1213;-41
2022/06/04 06:04:21;;;;;;;;;;;21.70;54.50;;;;;;496645;240;1741;-41
2022/06/04 06:06:23;;;;;;;;;;;21.70;54.50;;;;;;496277;240;1266;-41
2022/06/04 06:08:24;;;;;;;;;;;21.70;54.50;;;;;;496140;240;1324;-41
2022/06/04 06:10:25;;;;;;;;;;;21.70;54.50;;;;;;496552;240;1098;-41
2022/06/04 06:12:27;;;;;;;;;;;21.70;54.40;;;;;;496595;240;1176;-41
2022/06/04 06:14:28;;;;;;;;;;;21.70;54.40;;;;;;496221;240;2122;-41
2022/06/04 06:16:29;;;;;;;;;;;21.70;54.40;;;;;;496557;240;1238;-41
2022/06/04 06:18:31;;;;;;;;;;;21.70;54.50;;;;;;496321;240;1245;-41
2022/06/04 06:20:32;;;;;;;;;;;21.70;54.50;;;;;;496310;240;1270;-41
2022/06/04 06:22:33;;;;;;;;;;;21.70;54.50;;;;;;496042;240;1250;-41
2022/06/04 06:24:34;;;;;;;;;;;21.70;54.50;;;;;;496243;240;1283;-41
2022/06/04 06:26:36;;;;;;;;;;;21.70;54.40;;;;;;496521;240;1243;-41
2022/06/04 06:28:37;;;;;;;;;;;21.70;54.40;;;;;;496060;240;1223;-41
2022/06/04 06:30:39;;;;;;;;;;;21.70;54.50;;;;;;496215;240;1220;-41
2022/06/04 06:32:40;;;;;;;;;;;21.70;54.40;;;;;;496044;240;1239;-41
2022/06/04 06:34:41;;;;;;;;;;;21.70;54.40;;;;;;496369;240;2198;-41
2022/06/04 06:36:43;;;;;;;;;;;21.70;54.40;;;;;;496381;240;1375;-41
2022/06/04 06:38:45;;;;;;;;;;;21.70;54.30;;;;;;496396;240;1173;-41
2022/06/04 06:40:46;;;;;;;;;;;21.70;54.30;;;;;;496023;240;2735;-41
2022/06/04 06:42:47;;;;;;;;;;;21.70;54.40;;;;;;496482;240;2292;-41
2022/06/04 06:44:48;;;;;;;;;;;21.70;54.40;;;;;;496197;240;1147;-41
2022/06/04 06:46:50;;;;;;;;;;;21.60;54.50;;;;;;496372;240;1232;-41
2022/06/04 06:48:51;;;;;;;;;;;21.70;54.60;;;;;;496500;240;1035;-41
2022/06/04 06:50:53;;;;;;;;;;;21.70;54.50;;;;;;496612;240;1210;-41
2022/06/04 06:52:54;;;;;;;;;;;21.70;54.50;;;;;;496225;240;1182;-41
2022/06/04 06:54:55;;;;;;;;;;;21.70;54.40;;;;;;496351;240;2151;-41
2022/06/04 06:56:57;;;;;;;;;;;21.70;54.50;;;;;;496101;240;1197;-41
2022/06/04 06:58:58;;;;;;;;;;;21.70;54.40;;;;;;496630;240;1086;-41
2022/06/04 07:00:59;;;;;;;;;;;21.70;54.40;;;;;;496627;240;1122;-41
2022/06/04 07:03:01;;;;;;;;;;;21.70;54.50;;;;;;496653;240;1054;-41
2022/06/04 07:05:02;;;;;;;;;;;21.80;54.40;;;;;;496424;240;1034;-41
2022/06/04 07:07:03;;;;;;;;;;;21.70;54.50;;;;;;496139;240;1185;-41
2022/06/04 07:09:05;;;;;;;;;;;21.70;54.40;;;;;;496418;240;1154;-41
2022/06/04 07:11:06;;;;;;;;;;;21.70;54.40;;;;;;496316;240;1366;-41
2022/06/04 07:13:07;;;;;;;;;;;21.80;54.50;;;;;;496632;240;1187;-41
2022/06/04 07:15:09;;;;;;;;;;;21.70;54.40;;;;;;496651;240;2185;-41
2022/06/04 07:17:10;;;;;;;;;;;21.70;54.60;;;;;;496568;240;1181;-41
2022/06/04 07:19:11;;;;;;;;;;;21.70;54.50;;;;;;496175;240;1041;-41
2022/06/04 07:21:13;;;;;;;;;;;21.70;54.40;;;;;;496439;240;1362;-41
2022/06/04 07:23:15;;;;;;;;;;;21.70;54.50;;;;;;496063;240;1197;-41
2022/06/04 07:25:15;;;;;;;;;;;21.70;54.50;;;;;;496091;240;1453;-41
2022/06/04 07:27:17;;;;;;;;;;;21.70;54.60;;;;;;496415;240;1219;-41
2022/06/04 07:29:18;;;;;;;;;;;21.70;54.60;;;;;;496638;240;1074;-41
2022/06/04 07:31:20;;;;;;;;;;;21.70;54.50;;;;;;496486;240;1611;-41
2022/06/04 07:33:21;;;;;;;;;;;21.70;54.60;;;;;;496599;240;1315;-41
2022/06/04 07:35:22;;;;;;;;;;;21.70;54.60;;;;;;496253;240;2115;-41
2022/06/04 07:37:24;;;;;;;;;;;21.70;54.40;;;;;;496061;240;1229;-41
2022/06/04 07:39:25;;;;;;;;;;;21.70;54.60;;;;;;496353;240;1255;-41
2022/06/04 07:41:26;;;;;;;;;;;21.70;54.60;;;;;;496575;240;1288;-41
2022/06/04 07:43:28;;;;;;;;;;;21.70;54.60;;;;;;496129;240;1356;-41
2022/06/04 07:45:29;;;;;;;;;;;21.70;54.60;;;;;;496160;240;1504;-41
2022/06/04 07:47:30;;;;;;;;;;;21.70;54.60;;;;;;496588;240;1347;-41
2022/06/04 07:49:32;;;;;;;;;;;21.60;54.70;;;;;;496208;240;1174;-41
2022/06/04 07:51:33;;;;;;;;;;;21.70;54.60;;;;;;496052;240;1209;-41
2022/06/04 07:53:34;;;;;;;;;;;21.60;54.60;;;;;;496129;240;1213;-41
2022/06/04 07:55:36;;;;;;;;;;;21.70;54.60;;;;;;496219;240;2119;-41
2022/06/04 07:57:37;;;;;;;;;;;21.70;54.60;;;;;;496183;240;1555;-41
2022/06/04 07:59:38;;;;;;;;;;;21.70;54.60;;;;;;496138;240;1170;-41
2022/06/04 08:01:40;;;;;;;;;;;21.70;54.60;;;;;;496428;240;1252;-41
2022/06/04 08:03:41;;;;;;;;;;;21.70;54.60;;;;;;496605;240;1081;-41
2022/06/04 08:05:42;;;;;;;;;;;21.60;54.60;;;;;;496581;240;1290;-41
2022/06/04 08:07:44;;;;;;;;;;;21.70;54.60;;;;;;496599;240;1235;-41
2022/06/04 08:09:48;;;;;;;;;;;21.70;54.50;;;;;;496107;240;1326;-41
2022/06/04 08:11:47;;;;;;;;;;;21.70;54.60;;;;;;495886;240;1817;-41
2022/06/04 08:13:48;;;;;;;;;;;21.60;54.60;;;;;;496436;240;1112;-41
2022/06/04 08:15:49;;;;;;;;;;;21.70;54.60;;;;;;496569;240;2118;-41
2022/06/04 08:17:51;;;;;;;;;;;21.60;54.70;;;;;;496356;240;1110;-40
2022/06/04 08:19:52;;;;;;;;;;;21.60;54.60;;;;;;496667;240;986;-41
2022/06/04 08:21:54;;;;;;;;;;;21.60;54.60;;;;;;496358;240;2366;-41
2022/06/04 08:23:55;;;;;;;;;;;21.70;54.60;;;;;;496147;240;1105;-41
2022/06/04 08:25:56;;;;;;;;;;;21.60;54.60;;;;;;496103;240;1131;-41
2022/06/04 08:27:58;;;;;;;;;;;21.60;54.60;;;;;;496602;240;1271;-41
2022/06/04 08:29:59;;;;;;;;;;;21.60;54.70;;;;;;496239;240;1040;-41
2022/06/04 08:32:00;;;;;;;;;;;21.60;54.60;;;;;;496589;240;1419;-41
2022/06/04 08:34:02;;;;;;;;;;;21.60;54.60;;;;;;496639;240;1221;-41
2022/06/04 08:36:03;;;;;;;;;;;21.70;54.60;;;;;;496190;240;2107;-41
2022/06/04 08:38:04;;;;;;;;;;;21.70;54.50;;;;;;496153;240;1059;-41
2022/06/04 08:40:06;;;;;;;;;;;21.70;54.50;;;;;;496350;240;1279;-41
2022/06/04 08:42:07;;;;;;;;;;;21.70;54.60;;;;;;496509;240;1204;-41
2022/06/04 08:44:08;;;;;;;;;;;21.60;54.50;;;;;;496659;240;987;-41
2022/06/04 08:46:10;;;;;;;;;;;21.60;54.60;;;;;;496297;240;1194;-41
2022/06/04 08:48:11;;;;;;;;;;;21.60;54.60;;;;;;496219;240;1072;-41
2022/06/04 08:50:13;;;;;;;;;;;21.70;54.60;;;;;;496683;240;1153;-41
2022/06/04 08:52:14;;;;;;;;;;;21.70;54.50;;;;;;496607;240;1258;-41
2022/06/04 08:58:54;;;;;;;;;;;21.70;54.60;;;;;;496176;240;1186;-41
2022/06/04 09:00:55;;;;;;;;;;;21.60;54.60;;;;;;496623;240;1154;-41
2022/06/04 09:02:57;;;;;;;;;;;21.60;54.60;;;;;;496594;240;1330;-41
2022/06/04 09:04:59;;;;;;;;;;;21.70;54.60;;;;;;496606;240;1240;-41
2022/06/04 09:07:01;;;;;;;;;;;21.70;54.50;;;;;;496175;240;1275;-41
2022/06/04 09:09:03;;;;;;;;;;;21.70;54.50;;;;;;496280;240;1181;-41
2022/06/04 09:11:04;;;;;;;;;;;21.70;54.50;;;;;;496283;240;1207;-41
2022/06/04 09:13:05;;;;;;;;;;;21.70;54.50;;;;;;496571;240;1182;-41
2022/06/04 09:15:06;;;;;;;;;;;21.60;54.60;;;;;;496158;240;2123;-41
2022/06/04 09:17:08;;;;;;;;;;;21.60;54.60;;;;;;496573;240;1187;-41
2022/06/04 09:19:09;;;;;;;;;;;21.60;54.60;;;;;;496431;240;1239;-41
2022/06/04 09:21:10;;;;;;;;;;;21.70;54.50;;;;;;496203;240;1275;-41
2022/06/04 09:23:11;;;;;;;;;;;21.70;54.40;;;;;;496332;240;1193;-41
2022/06/04 09:25:13;;;;;;;;;;;21.70;54.50;;;;;;496579;240;1152;-41
2022/06/04 09:27:15;;;;;;;;;;;21.60;54.50;;;;;;496132;240;1224;-41
2022/06/04 09:29:16;;;;;;;;;;;21.60;54.60;;;;;;496103;240;1363;-41
2022/06/04 09:31:17;;;;;;;;;;;21.70;54.60;;;;;;496063;240;1119;-41
2022/06/04 09:33:19;;;;;;;;;;;21.70;54.40;;;;;;496406;240;1320;-41
2022/06/04 09:35:20;;;;;;;;;;;21.70;54.50;;;;;;496602;240;2130;-41
2022/06/04 09:37:22;;;;;;;;;;;21.70;54.50;;;;;;496027;240;1260;-41
2022/06/04 09:39:23;;;;;;;;;;;21.70;54.50;;;;;;496644;240;1055;-41
2022/06/04 09:41:24;;;;;;;;;;;21.70;54.60;;;;;;496117;240;1265;-41
2022/06/04 09:43:25;;;;;;;;;;;21.60;54.60;;;;;;496633;240;1018;-41
2022/06/04 09:45:27;;;;;;;;;;;21.60;54.60;;;;;;496118;240;1125;-41
2022/06/04 09:47:28;;;;;;;;;;;21.60;54.60;;;;;;496431;240;1139;-41
2022/06/04 09:49:29;;;;;;;;;;;21.60;54.60;;;;;;496325;240;1318;-41
2022/06/04 09:51:31;;;;;;;;;;;21.70;54.60;;;;;;496082;240;1232;-41
2022/06/04 09:53:32;;;;;;;;;;;21.60;54.60;;;;;;496599;240;1085;-41
2022/06/04 09:55:33;;;;;;;;;;;21.70;54.60;;;;;;496122;240;2182;-41
2022/06/04 09:57:36;;;;;;;;;;;21.70;54.50;;;;;;496116;240;1224;-41
2022/06/04 09:59:37;;;;;;;;;;;21.70;54.60;;;;;;496462;240;1215;-41
2022/06/04 10:01:38;;;;;;;;;;;21.70;54.50;;;;;;496387;240;1238;-41
2022/06/04 10:03:40;;;;;;;;;;;21.70;54.50;;;;;;496066;240;1262;-41
2022/06/04 10:05:42;;;;;;;;;;;21.70;54.50;;;;;;496451;240;1191;-41
2022/06/04 10:07:42;;;;;;;;;;;21.60;54.50;;;;;;496010;240;1628;-41
2022/06/04 10:09:56;;;;;;;;;;;21.60;54.60;;;;;;496423;240;1203;-41
2022/06/04 10:11:59;;;;;;;;;;;21.70;54.60;;;;;;496061;240;1343;-41
2022/06/04 10:13:59;;;;;;;;;;;21.60;54.60;;;;;;496446;240;2125;-41
2022/06/04 10:16:00;;;;;;;;;;;21.70;54.50;;;;;;496084;240;2201;-41
2022/06/04 10:18:02;;;;;;;;;;;21.60;54.50;;;;;;496303;240;1179;-41
2022/06/04 10:20:03;;;;;;;;;;;21.60;54.60;;;;;;496662;240;1130;-41
2022/06/04 10:22:05;;;;;;;;;;;21.60;54.70;;;;;;496332;240;1343;-41
2022/06/04 10:24:07;;;;;;;;;;;21.60;54.60;;;;;;496657;240;967;-41
2022/06/04 10:26:08;;;;;;;;;;;21.60;54.70;;;;;;496353;240;2079;-41
2022/06/04 10:28:10;;;;;;;;;;;21.70;54.60;;;;;;496595;240;1074;-41
2022/06/04 10:30:10;;;;;;;;;;;21.60;54.60;;;;;;496511;240;2075;-41
2022/06/04 10:32:12;;;;;;;;;;;21.70;54.50;;;;;;496166;240;1331;-41
2022/06/04 10:34:13;;;;;;;;;;;21.60;54.60;;;;;;496659;240;1421;-41
2022/06/04 10:36:14;;;;;;;;;;;21.60;54.60;;;;;;496394;240;2103;-41
2022/06/04 10:38:15;;;;;;;;;;;21.60;54.60;;;;;;496149;240;1094;-41
2022/06/04 10:40:17;;;;;;;;;;;21.60;54.60;;;;;;496548;240;1074;-41
2022/06/04 10:42:18;;;;;;;;;;;21.60;54.60;;;;;;496063;240;1475;-41
2022/06/04 10:44:19;;;;;;;;;;;21.60;54.60;;;;;;496316;240;1231;-41
2022/06/04 10:46:21;;;;;;;;;;;21.60;54.50;;;;;;496660;240;1120;-41
2022/06/04 10:48:22;;;;;;;;;;;21.60;54.60;;;;;;496563;240;1245;-41
2022/06/04 10:50:23;;;;;;;;;;;21.60;54.70;;;;;;496092;240;1175;-41
2022/06/04 10:52:25;;;;;;;;;;;21.70;54.60;;;;;;496492;240;1339;-41
2022/06/04 10:54:26;;;;;;;;;;;21.60;54.70;;;;;;496176;240;1173;-41
2022/06/04 10:56:27;;;;;;;;;;;21.60;54.70;;;;;;496461;236;2209;-41
2022/06/04 10:58:29;;;;;;;;;;;21.60;54.70;;;;;;496669;240;992;-41
2022/06/04 11:00:30;;;;;;;;;;;21.60;54.50;;;;;;496183;240;1036;-41
2022/06/04 11:02:31;;;;;;;;;;;21.60;54.50;;;;;;496183;240;1161;-41
2022/06/04 11:04:33;;;;;;;;;;;21.60;54.60;;;;;;496177;240;1068;-41
2022/06/04 11:06:34;;;;;;;;;;;21.60;54.50;;;;;;496056;240;1623;-41
2022/06/04 11:08:35;;;;;;;;;;;21.60;54.50;;;;;;496287;240;1323;-41
2022/06/04 11:10:37;;;;;;;;;;;21.60;54.40;;;;;;496366;240;1094;-41
2022/06/04 11:12:38;;;;;;;;;;;21.60;54.60;;;;;;496294;240;1187;-41
2022/06/04 11:14:39;;;;;;;;;;;21.60;54.60;;;;;;496234;240;1185;-41
2022/06/04 11:16:41;;;;;;;;;;;21.60;54.50;;;;;;496140;240;2202;-41
2022/06/04 11:18:43;;;;;;;;;;;21.60;54.50;;;;;;496261;240;1357;-41
2022/06/04 11:20:44;;;;;;;;;;;21.60;54.50;;;;;;496328;240;1270;-41
2022/06/04 11:22:45;;;;;;;;;;;21.60;54.50;;;;;;496156;240;1073;-41
2022/06/04 11:24:47;;;;;;;;;;;21.60;54.50;;;;;;496278;240;1136;-41
2022/06/04 11:26:48;;;;;;;;;;;21.60;54.50;;;;;;496205;240;1156;-41
2022/06/04 11:28:49;;;;;;;;;;;21.70;54.50;;;;;;496641;240;1374;-41
2022/06/04 11:30:51;;;;;;;;;;;21.60;54.50;;;;;;496658;240;1268;-41
2022/06/04 11:32:52;;;;;;;;;;;21.60;54.60;;;;;;496648;240;1347;-41
2022/06/04 11:34:53;;;;;;;;;;;21.60;54.60;;;;;;496179;240;1162;-41
2022/06/04 11:36:54;;;;;;;;;;;21.70;54.50;;;;;;496067;240;2178;-41
2022/06/04 11:38:56;;;;;;;;;;;21.60;54.60;;;;;;496504;240;1218;-41
2022/06/04 11:40:57;;;;;;;;;;;21.60;54.60;;;;;;496611;240;1156;-41
2022/06/04 11:42:58;;;;;;;;;;;21.60;54.60;;;;;;496308;240;1308;-41
2022/06/04 11:45:00;;;;;;;;;;;21.60;54.60;;;;;;496134;240;1378;-41
2022/06/04 11:47:01;;;;;;;;;;;21.60;54.70;;;;;;496505;240;1157;-41
2022/06/04 11:49:03;;;;;;;;;;;21.60;54.60;;;;;;496639;240;1183;-41
2022/06/04 11:51:04;;;;;;;;;;;21.60;54.60;;;;;;496614;240;1225;-41
2022/06/04 11:53:05;;;;;;;;;;;21.70;54.60;;;;;;496623;240;1206;-41
2022/06/04 11:55:07;;;;;;;;;;;21.70;54.40;;;;;;496165;240;1181;-41
2022/06/04 11:57:08;;;;;;;;;;;21.70;54.30;;;;;;496115;240;2174;-41
2022/06/04 11:59:10;;;;;;;;;;;21.70;54.40;;;;;;496584;240;1260;-41
2022/06/04 12:01:11;;;;;;;;;;;21.70;54.40;;;;;;496371;240;1048;-41
2022/06/04 12:03:12;;;;;;;;;;;21.60;54.50;;;;;;496507;240;1133;-41
2022/06/04 12:05:14;;;;;;;;;;;21.70;54.50;;;;;;496601;240;1197;-41
2022/06/04 12:07:15;;;;;;;;;;;21.70;54.50;;;;;;496047;240;1032;-41
2022/06/04 12:09:16;;;;;;;;;;;21.60;54.50;;;;;;496174;240;1125;-41
2022/06/04 12:11:18;;;;;;;;;;;21.60;54.60;;;;;;496590;240;1115;-41
2022/06/04 12:13:19;;;;;;;;;;;21.60;54.50;;;;;;496339;240;1387;-41